sensor_id;sensor_type;location;lat;lon;timestamp;P1;durP1;ratioP1;P2;durP2;ratioP2
22794;SDS011;11564;50.920;11.612;2023-08-17T00:01:26;9.33;;;7.50;;
22794;SDS011;11564;50.920;11.612;2023-08-17T00:03:51;11.60;;;6.47;;
22794;SDS011;11564;50.920;11.612;2023-08-17T00:06:17;15.23;;;7.30;;
22794;SDS011;11564;50.920;11.612;2023-08-17T00:08:42;12.27;;;7.30;;
22794;SDS011;11564;50.920;11.612;2023-08-17T00:11:09;9.00;;;7.53;;
22794;SDS011;11564;50.920;11.612;2023-08-17T00:13:35;8.43;;;7.00;;
22794;SDS011;11564;50.920;11.612;2023-08-17T00:16:01;11.30;;;7.90;;
22794;SDS011;11564;50.920;11.612;2023-08-17T00:18:27;7.43;;;6.70;;
22794;SDS011;11564;50.920;11.612;2023-08-17T00:20:52;9.30;;;8.30;;
22794;SDS011;11564;50.920;11.612;2023-08-17T00:23:18;7.87;;;7.00;;
22794;SDS011;11564;50.920;11.612;2023-08-17T00:25:45;9.87;;;8.87;;
22794;SDS011;11564;50.920;11.612;2023-08-17T00:28:12;13.30;;;9.90;;
22794;SDS011;11564;50.920;11.612;2023-08-17T00:30:39;11.50;;;10.30;;
22794;SDS011;11564;50.920;11.612;2023-08-17T00:33:04;15.07;;;10.23;;
22794;SDS011;11564;50.920;11.612;2023-08-17T00:35:30;10.37;;;9.37;;
22794;SDS011;11564;50.920;11.612;2023-08-17T00:37:56;10.10;;;9.07;;
22794;SDS011;11564;50.920;11.612;2023-08-17T00:40:22;11.23;;;10.13;;
22794;SDS011;11564;50.920;11.612;2023-08-17T00:42:47;11.10;;;10.00;;
22794;SDS011;11564;50.920;11.612;2023-08-17T00:45:14;9.10;;;8.40;;
22794;SDS011;11564;50.920;11.612;2023-08-17T00:47:40;8.77;;;7.87;;
22794;SDS011;11564;50.920;11.612;2023-08-17T00:50:06;12.30;;;8.20;;
22794;SDS011;11564;50.920;11.612;2023-08-17T00:52:32;6.47;;;5.77;;
22794;SDS011;11564;50.920;11.612;2023-08-17T00:54:59;5.27;;;4.77;;
22794;SDS011;11564;50.920;11.612;2023-08-17T00:57:27;7.73;;;3.57;;
22794;SDS011;11564;50.920;11.612;2023-08-17T00:59:53;3.60;;;3.30;;
22794;SDS011;11564;50.920;11.612;2023-08-17T01:02:19;3.37;;;2.57;;
22794;SDS011;11564;50.920;11.612;2023-08-17T01:04:45;3.27;;;2.83;;
22794;SDS011;11564;50.920;11.612;2023-08-17T01:07:11;3.80;;;2.67;;
22794;SDS011;11564;50.920;11.612;2023-08-17T01:09:37;2.73;;;2.53;;
22794;SDS011;11564;50.920;11.612;2023-08-17T01:15:04;4.20;;;2.40;;
22794;SDS011;11564;50.920;11.612;2023-08-17T01:17:37;2.30;;;2.10;;
22794;SDS011;11564;50.920;11.612;2023-08-17T01:20:28;4.07;;;1.30;;
22794;SDS011;11564;50.920;11.612;2023-08-17T01:22:56;3.47;;;1.13;;
22794;SDS011;11564;50.920;11.612;2023-08-17T01:25:30;1.80;;;1.20;;
22794;SDS011;11564;50.920;11.612;2023-08-17T01:28:01;2.77;;;1.10;;
22794;SDS011;11564;50.920;11.612;2023-08-17T01:30:27;3.07;;;1.23;;
22794;SDS011;11564;50.920;11.612;2023-08-17T01:33:01;4.10;;;1.30;;
22794;SDS011;11564;50.920;11.612;2023-08-17T01:35:39;1.47;;;1.30;;
22794;SDS011;11564;50.920;11.612;2023-08-17T01:38:11;1.33;;;1.23;;
22794;SDS011;11564;50.920;11.612;2023-08-17T01:40:40;3.33;;;1.23;;
22794;SDS011;11564;50.920;11.612;2023-08-17T01:43:07;4.00;;;1.27;;
22794;SDS011;11564;50.920;11.612;2023-08-17T01:45:33;3.27;;;1.27;;
22794;SDS011;11564;50.920;11.612;2023-08-17T01:47:59;4.43;;;1.93;;
22794;SDS011;11564;50.920;11.612;2023-08-17T01:50:25;19.13;;;4.20;;
22794;SDS011;11564;50.920;11.612;2023-08-17T01:52:50;28.20;;;5.50;;
22794;SDS011;11564;50.920;11.612;2023-08-17T01:55:16;11.20;;;2.93;;
22794;SDS011;11564;50.920;11.612;2023-08-17T01:57:42;2.50;;;1.40;;
22794;SDS011;11564;50.920;11.612;2023-08-17T02:00:07;3.20;;;1.40;;
22794;SDS011;11564;50.920;11.612;2023-08-17T02:02:35;1.50;;;1.40;;
22794;SDS011;11564;50.920;11.612;2023-08-17T02:05:01;5.90;;;1.90;;
22794;SDS011;11564;50.920;11.612;2023-08-17T02:07:27;3.93;;;1.63;;
22794;SDS011;11564;50.920;11.612;2023-08-17T02:09:53;10.10;;;1.90;;
22794;SDS011;11564;50.920;11.612;2023-08-17T02:12:19;4.77;;;2.17;;
22794;SDS011;11564;50.920;11.612;2023-08-17T02:14:44;2.47;;;1.60;;
22794;SDS011;11564;50.920;11.612;2023-08-17T02:17:10;3.50;;;2.00;;
22794;SDS011;11564;50.920;11.612;2023-08-17T02:19:36;6.83;;;1.90;;
22794;SDS011;11564;50.920;11.612;2023-08-17T02:22:01;10.43;;;2.30;;
22794;SDS011;11564;50.920;11.612;2023-08-17T02:24:27;14.57;;;2.87;;
22794;SDS011;11564;50.920;11.612;2023-08-17T02:26:53;4.43;;;2.83;;
22794;SDS011;11564;50.920;11.612;2023-08-17T02:29:18;7.63;;;2.40;;
22794;SDS011;11564;50.920;11.612;2023-08-17T02:31:44;3.97;;;2.20;;
22794;SDS011;11564;50.920;11.612;2023-08-17T02:34:10;10.43;;;2.77;;
22794;SDS011;11564;50.920;11.612;2023-08-17T02:36:35;3.00;;;1.70;;
22794;SDS011;11564;50.920;11.612;2023-08-17T02:39:01;1.40;;;1.30;;
22794;SDS011;11564;50.920;11.612;2023-08-17T02:41:28;8.93;;;2.40;;
22794;SDS011;11564;50.920;11.612;2023-08-17T02:43:55;4.77;;;1.67;;
22794;SDS011;11564;50.920;11.612;2023-08-17T02:46:21;4.33;;;1.97;;
22794;SDS011;11564;50.920;11.612;2023-08-17T02:48:46;4.10;;;1.00;;
22794;SDS011;11564;50.920;11.612;2023-08-17T02:51:12;2.90;;;1.50;;
22794;SDS011;11564;50.920;11.612;2023-08-17T02:53:38;2.33;;;1.60;;
22794;SDS011;11564;50.920;11.612;2023-08-17T02:56:04;5.00;;;1.77;;
22794;SDS011;11564;50.920;11.612;2023-08-17T02:58:30;11.90;;;1.50;;
22794;SDS011;11564;50.920;11.612;2023-08-17T03:00:55;6.30;;;1.70;;
22794;SDS011;11564;50.920;11.612;2023-08-17T03:03:21;5.60;;;2.03;;
22794;SDS011;11564;50.920;11.612;2023-08-17T03:05:46;9.97;;;1.90;;
22794;SDS011;11564;50.920;11.612;2023-08-17T03:08:12;4.57;;;2.10;;
22794;SDS011;11564;50.920;11.612;2023-08-17T03:10:38;3.10;;;1.50;;
22794;SDS011;11564;50.920;11.612;2023-08-17T03:13:03;1.60;;;1.40;;
22794;SDS011;11564;50.920;11.612;2023-08-17T03:15:29;5.73;;;2.40;;
22794;SDS011;11564;50.920;11.612;2023-08-17T03:17:55;7.50;;;2.20;;
22794;SDS011;11564;50.920;11.612;2023-08-17T03:20:21;4.30;;;1.60;;
22794;SDS011;11564;50.920;11.612;2023-08-17T03:22:46;11.77;;;2.23;;
22794;SDS011;11564;50.920;11.612;2023-08-17T03:25:12;2.00;;;1.27;;
22794;SDS011;11564;50.920;11.612;2023-08-17T03:27:37;2.70;;;1.50;;
22794;SDS011;11564;50.920;11.612;2023-08-17T03:30:04;1.27;;;1.10;;
22794;SDS011;11564;50.920;11.612;2023-08-17T03:32:30;5.27;;;0.90;;
22794;SDS011;11564;50.920;11.612;2023-08-17T03:34:56;3.37;;;0.90;;
22794;SDS011;11564;50.920;11.612;2023-08-17T03:37:21;4.87;;;1.33;;
22794;SDS011;11564;50.920;11.612;2023-08-17T03:39:47;2.00;;;0.87;;
22794;SDS011;11564;50.920;11.612;2023-08-17T03:42:13;1.03;;;0.80;;
22794;SDS011;11564;50.920;11.612;2023-08-17T03:44:38;1.83;;;1.37;;
22794;SDS011;11564;50.920;11.612;2023-08-17T03:47:04;8.70;;;1.20;;
22794;SDS011;11564;50.920;11.612;2023-08-17T03:49:29;1.80;;;1.37;;
22794;SDS011;11564;50.920;11.612;2023-08-17T03:51:55;1.53;;;1.00;;
22794;SDS011;11564;50.920;11.612;2023-08-17T03:54:21;2.10;;;1.17;;
22794;SDS011;11564;50.920;11.612;2023-08-17T03:56:46;1.33;;;1.23;;
22794;SDS011;11564;50.920;11.612;2023-08-17T03:59:12;1.63;;;1.53;;
22794;SDS011;11564;50.920;11.612;2023-08-17T04:01:38;1.93;;;1.53;;
22794;SDS011;11564;50.920;11.612;2023-08-17T04:04:04;3.70;;;1.73;;
22794;SDS011;11564;50.920;11.612;2023-08-17T04:06:30;4.53;;;1.67;;
22794;SDS011;11564;50.920;11.612;2023-08-17T04:08:55;1.80;;;1.43;;
22794;SDS011;11564;50.920;11.612;2023-08-17T04:11:21;1.53;;;1.40;;
22794;SDS011;11564;50.920;11.612;2023-08-17T04:13:47;5.27;;;2.10;;
22794;SDS011;11564;50.920;11.612;2023-08-17T04:16:12;1.87;;;1.10;;
22794;SDS011;11564;50.920;11.612;2023-08-17T04:18:38;4.13;;;1.50;;
22794;SDS011;11564;50.920;11.612;2023-08-17T04:21:03;2.93;;;1.90;;
22794;SDS011;11564;50.920;11.612;2023-08-17T04:23:29;1.33;;;1.10;;
22794;SDS011;11564;50.920;11.612;2023-08-17T04:25:55;3.10;;;1.37;;
22794;SDS011;11564;50.920;11.612;2023-08-17T04:28:20;3.13;;;1.33;;
22794;SDS011;11564;50.920;11.612;2023-08-17T04:30:46;6.87;;;1.53;;
22794;SDS011;11564;50.920;11.612;2023-08-17T04:33:12;4.20;;;2.07;;
22794;SDS011;11564;50.920;11.612;2023-08-17T04:35:38;10.10;;;1.87;;
22794;SDS011;11564;50.920;11.612;2023-08-17T04:38:03;1.87;;;1.53;;
22794;SDS011;11564;50.920;11.612;2023-08-17T04:40:29;2.17;;;1.50;;
22794;SDS011;11564;50.920;11.612;2023-08-17T04:42:55;2.83;;;1.63;;
22794;SDS011;11564;50.920;11.612;2023-08-17T04:45:21;2.57;;;1.80;;
22794;SDS011;11564;50.920;11.612;2023-08-17T04:47:46;8.40;;;2.67;;
22794;SDS011;11564;50.920;11.612;2023-08-17T04:50:12;5.13;;;1.90;;
22794;SDS011;11564;50.920;11.612;2023-08-17T04:52:41;6.70;;;2.00;;
22794;SDS011;11564;50.920;11.612;2023-08-17T04:55:10;2.27;;;2.10;;
22794;SDS011;11564;50.920;11.612;2023-08-17T04:57:39;4.77;;;2.20;;
22794;SDS011;11564;50.920;11.612;2023-08-17T05:00:04;3.93;;;2.10;;
22794;SDS011;11564;50.920;11.612;2023-08-17T05:02:34;2.40;;;2.03;;
22794;SDS011;11564;50.920;11.612;2023-08-17T05:05:02;3.07;;;2.77;;
22794;SDS011;11564;50.920;11.612;2023-08-17T05:07:29;9.00;;;3.53;;
22794;SDS011;11564;50.920;11.612;2023-08-17T05:09:54;4.57;;;3.00;;
22794;SDS011;11564;50.920;11.612;2023-08-17T05:12:20;3.30;;;3.10;;
22794;SDS011;11564;50.920;11.612;2023-08-17T05:14:46;4.97;;;4.47;;
22794;SDS011;11564;50.920;11.612;2023-08-17T05:17:11;8.33;;;5.20;;
22794;SDS011;11564;50.920;11.612;2023-08-17T05:19:37;12.43;;;5.67;;
22794;SDS011;11564;50.920;11.612;2023-08-17T05:22:04;7.87;;;5.40;;
22794;SDS011;11564;50.920;11.612;2023-08-17T05:24:31;11.93;;;6.20;;
22794;SDS011;11564;50.920;11.612;2023-08-17T05:26:57;7.43;;;5.20;;
22794;SDS011;11564;50.920;11.612;2023-08-17T05:29:23;5.67;;;5.17;;
22794;SDS011;11564;50.920;11.612;2023-08-17T05:31:48;4.37;;;3.97;;
22794;SDS011;11564;50.920;11.612;2023-08-17T05:34:14;6.73;;;3.90;;
22794;SDS011;11564;50.920;11.612;2023-08-17T05:36:40;4.07;;;3.73;;
22794;SDS011;11564;50.920;11.612;2023-08-17T05:39:06;4.70;;;4.30;;
22794;SDS011;11564;50.920;11.612;2023-08-17T05:41:31;9.20;;;4.77;;
22794;SDS011;11564;50.920;11.612;2023-08-17T05:43:57;8.00;;;5.10;;
22794;SDS011;11564;50.920;11.612;2023-08-17T05:46:23;7.70;;;4.53;;
22794;SDS011;11564;50.920;11.612;2023-08-17T05:48:49;6.73;;;4.13;;
22794;SDS011;11564;50.920;11.612;2023-08-17T05:51:14;3.67;;;3.37;;
22794;SDS011;11564;50.920;11.612;2023-08-17T05:53:40;4.23;;;3.40;;
22794;SDS011;11564;50.920;11.612;2023-08-17T05:56:06;4.57;;;2.80;;
22794;SDS011;11564;50.920;11.612;2023-08-17T05:58:32;5.30;;;3.63;;
22794;SDS011;11564;50.920;11.612;2023-08-17T06:01:04;5.00;;;3.40;;
22794;SDS011;11564;50.920;11.612;2023-08-17T06:03:34;3.63;;;2.70;;
22794;SDS011;11564;50.920;11.612;2023-08-17T06:06:01;3.50;;;3.20;;
22794;SDS011;11564;50.920;11.612;2023-08-17T06:08:26;2.83;;;2.60;;
22794;SDS011;11564;50.920;11.612;2023-08-17T06:10:52;2.83;;;2.63;;
22794;SDS011;11564;50.920;11.612;2023-08-17T06:13:18;4.60;;;2.70;;
22794;SDS011;11564;50.920;11.612;2023-08-17T06:15:43;3.00;;;2.80;;
22794;SDS011;11564;50.920;11.612;2023-08-17T06:18:09;2.33;;;2.20;;
22794;SDS011;11564;50.920;11.612;2023-08-17T06:20:35;4.13;;;2.70;;
22794;SDS011;11564;50.920;11.612;2023-08-17T06:23:00;2.60;;;2.40;;
22794;SDS011;11564;50.920;11.612;2023-08-17T06:25:26;2.13;;;1.97;;
22794;SDS011;11564;50.920;11.612;2023-08-17T06:27:51;2.20;;;2.07;;
22794;SDS011;11564;50.920;11.612;2023-08-17T06:30:17;2.10;;;2.00;;
22794;SDS011;11564;50.920;11.612;2023-08-17T06:32:43;6.40;;;1.93;;
22794;SDS011;11564;50.920;11.612;2023-08-17T06:35:08;2.13;;;1.93;;
22794;SDS011;11564;50.920;11.612;2023-08-17T06:37:34;2.37;;;2.17;;
22794;SDS011;11564;50.920;11.612;2023-08-17T06:40:00;2.33;;;2.13;;
22794;SDS011;11564;50.920;11.612;2023-08-17T06:42:27;6.07;;;2.40;;
22794;SDS011;11564;50.920;11.612;2023-08-17T06:44:53;2.27;;;2.03;;
22794;SDS011;11564;50.920;11.612;2023-08-17T06:47:18;2.90;;;2.00;;
22794;SDS011;11564;50.920;11.612;2023-08-17T06:49:44;3.50;;;2.07;;
22794;SDS011;11564;50.920;11.612;2023-08-17T06:52:09;2.80;;;2.10;;
22794;SDS011;11564;50.920;11.612;2023-08-17T06:54:35;2.20;;;1.73;;
22794;SDS011;11564;50.920;11.612;2023-08-17T06:57:01;3.57;;;1.77;;
22794;SDS011;11564;50.920;11.612;2023-08-17T06:59:26;3.63;;;1.90;;
22794;SDS011;11564;50.920;11.612;2023-08-17T07:01:52;3.27;;;1.70;;
22794;SDS011;11564;50.920;11.612;2023-08-17T07:04:18;2.50;;;1.67;;
22794;SDS011;11564;50.920;11.612;2023-08-17T07:06:43;2.23;;;2.03;;
22794;SDS011;11564;50.920;11.612;2023-08-17T07:09:09;2.10;;;1.90;;
22794;SDS011;11564;50.920;11.612;2023-08-17T07:11:37;1.97;;;1.83;;
22794;SDS011;11564;50.920;11.612;2023-08-17T07:14:04;3.33;;;2.87;;
22794;SDS011;11564;50.920;11.612;2023-08-17T07:16:31;1.77;;;1.63;;
22794;SDS011;11564;50.920;11.612;2023-08-17T07:18:57;1.73;;;1.63;;
22794;SDS011;11564;50.920;11.612;2023-08-17T07:21:22;3.37;;;1.97;;
22794;SDS011;11564;50.920;11.612;2023-08-17T07:23:48;1.40;;;1.20;;
22794;SDS011;11564;50.920;11.612;2023-08-17T07:26:15;2.17;;;1.80;;
22794;SDS011;11564;50.920;11.612;2023-08-17T07:28:41;5.60;;;1.80;;
22794;SDS011;11564;50.920;11.612;2023-08-17T07:31:06;3.50;;;1.80;;
22794;SDS011;11564;50.920;11.612;2023-08-17T07:33:32;2.73;;;2.20;;
22794;SDS011;11564;50.920;11.612;2023-08-17T07:35:57;5.80;;;2.30;;
22794;SDS011;11564;50.920;11.612;2023-08-17T07:38:24;2.03;;;1.83;;
22794;SDS011;11564;50.920;11.612;2023-08-17T07:40:49;1.90;;;1.80;;
22794;SDS011;11564;50.920;11.612;2023-08-17T07:43:15;1.67;;;1.57;;
22794;SDS011;11564;50.920;11.612;2023-08-17T07:45:41;4.97;;;1.70;;
22794;SDS011;11564;50.920;11.612;2023-08-17T07:48:06;1.57;;;1.47;;
22794;SDS011;11564;50.920;11.612;2023-08-17T07:50:32;2.13;;;1.47;;
22794;SDS011;11564;50.920;11.612;2023-08-17T07:52:58;2.13;;;1.90;;
22794;SDS011;11564;50.920;11.612;2023-08-17T07:55:23;1.40;;;1.30;;
22794;SDS011;11564;50.920;11.612;2023-08-17T07:57:50;5.30;;;1.90;;
22794;SDS011;11564;50.920;11.612;2023-08-17T08:00:16;2.10;;;1.77;;
22794;SDS011;11564;50.920;11.612;2023-08-17T08:02:42;4.70;;;1.77;;
22794;SDS011;11564;50.920;11.612;2023-08-17T08:05:07;1.67;;;1.57;;
22794;SDS011;11564;50.920;11.612;2023-08-17T08:07:33;3.00;;;1.77;;
22794;SDS011;11564;50.920;11.612;2023-08-17T08:09:59;2.20;;;2.00;;
22794;SDS011;11564;50.920;11.612;2023-08-17T08:12:24;6.20;;;2.10;;
22794;SDS011;11564;50.920;11.612;2023-08-17T08:14:50;3.00;;;2.47;;
22794;SDS011;11564;50.920;11.612;2023-08-17T08:17:16;8.40;;;2.30;;
22794;SDS011;11564;50.920;11.612;2023-08-17T08:19:41;2.30;;;2.03;;
22794;SDS011;11564;50.920;11.612;2023-08-17T08:22:07;2.80;;;2.00;;
22794;SDS011;11564;50.920;11.612;2023-08-17T08:24:33;3.73;;;1.73;;
22794;SDS011;11564;50.920;11.612;2023-08-17T08:27:01;3.60;;;2.13;;
22794;SDS011;11564;50.920;11.612;2023-08-17T08:29:27;3.30;;;2.00;;
22794;SDS011;11564;50.920;11.612;2023-08-17T08:31:52;3.33;;;2.73;;
22794;SDS011;11564;50.920;11.612;2023-08-17T08:34:18;4.13;;;2.43;;
22794;SDS011;11564;50.920;11.612;2023-08-17T08:36:44;2.60;;;2.40;;
22794;SDS011;11564;50.920;11.612;2023-08-17T08:39:09;3.43;;;2.63;;
22794;SDS011;11564;50.920;11.612;2023-08-17T08:41:37;2.70;;;2.50;;
22794;SDS011;11564;50.920;11.612;2023-08-17T08:44:03;10.13;;;3.90;;
22794;SDS011;11564;50.920;11.612;2023-08-17T08:46:29;4.70;;;4.30;;
22794;SDS011;11564;50.920;11.612;2023-08-17T08:48:57;6.27;;;5.67;;
22794;SDS011;11564;50.920;11.612;2023-08-17T08:51:25;3.50;;;3.20;;
22794;SDS011;11564;50.920;11.612;2023-08-17T08:54:00;3.17;;;2.90;;
22794;SDS011;11564;50.920;11.612;2023-08-17T08:56:33;4.80;;;3.53;;
22794;SDS011;11564;50.920;11.612;2023-08-17T08:59:01;3.53;;;3.30;;
22794;SDS011;11564;50.920;11.612;2023-08-17T09:01:28;5.00;;;3.43;;
22794;SDS011;11564;50.920;11.612;2023-08-17T09:03:57;3.70;;;3.50;;
22794;SDS011;11564;50.920;11.612;2023-08-17T09:06:25;11.00;;;4.50;;
22794;SDS011;11564;50.920;11.612;2023-08-17T09:08:51;6.00;;;3.73;;
22794;SDS011;11564;50.920;11.612;2023-08-17T09:11:17;4.87;;;3.97;;
22794;SDS011;11564;50.920;11.612;2023-08-17T09:13:43;4.70;;;3.40;;
22794;SDS011;11564;50.920;11.612;2023-08-17T09:16:08;6.07;;;4.27;;
22794;SDS011;11564;50.920;11.612;2023-08-17T09:18:34;5.30;;;4.20;;
22794;SDS011;11564;50.920;11.612;2023-08-17T09:21:00;3.87;;;3.50;;
22794;SDS011;11564;50.920;11.612;2023-08-17T09:23:26;3.63;;;3.33;;
22794;SDS011;11564;50.920;11.612;2023-08-17T09:25:52;8.50;;;3.47;;
22794;SDS011;11564;50.920;11.612;2023-08-17T09:28:22;4.07;;;3.73;;
22794;SDS011;11564;50.920;11.612;2023-08-17T09:30:58;3.67;;;3.47;;
22794;SDS011;11564;50.920;11.612;2023-08-17T09:33:25;7.40;;;3.70;;
22794;SDS011;11564;50.920;11.612;2023-08-17T09:35:53;4.10;;;3.80;;
22794;SDS011;11564;50.920;11.612;2023-08-17T09:38:20;4.27;;;4.00;;
22794;SDS011;11564;50.920;11.612;2023-08-17T09:40:46;5.53;;;5.00;;
22794;SDS011;11564;50.920;11.612;2023-08-17T09:43:13;5.20;;;4.80;;
22794;SDS011;11564;50.920;11.612;2023-08-17T09:45:40;4.00;;;3.70;;
22794;SDS011;11564;50.920;11.612;2023-08-17T09:48:07;12.83;;;4.70;;
22794;SDS011;11564;50.920;11.612;2023-08-17T09:50:33;4.63;;;4.23;;
22794;SDS011;11564;50.920;11.612;2023-08-17T09:52:59;5.03;;;4.73;;
22794;SDS011;11564;50.920;11.612;2023-08-17T09:55:25;4.60;;;4.30;;
22794;SDS011;11564;50.920;11.612;2023-08-17T09:57:51;6.10;;;4.20;;
22794;SDS011;11564;50.920;11.612;2023-08-17T10:00:18;7.40;;;4.20;;
22794;SDS011;11564;50.920;11.612;2023-08-17T10:02:44;4.97;;;4.50;;
22794;SDS011;11564;50.920;11.612;2023-08-17T10:05:14;7.70;;;5.47;;
22794;SDS011;11564;50.920;11.612;2023-08-17T10:07:46;5.67;;;4.73;;
22794;SDS011;11564;50.920;11.612;2023-08-17T10:10:16;5.03;;;4.60;;
22794;SDS011;11564;50.920;11.612;2023-08-17T10:12:48;4.67;;;4.27;;
22794;SDS011;11564;50.920;11.612;2023-08-17T10:15:18;5.00;;;4.60;;
22794;SDS011;11564;50.920;11.612;2023-08-17T10:17:58;5.67;;;5.17;;
22794;SDS011;11564;50.920;11.612;2023-08-17T10:20:40;5.40;;;4.90;;
22794;SDS011;11564;50.920;11.612;2023-08-17T10:23:12;5.33;;;4.83;;
22794;SDS011;11564;50.920;11.612;2023-08-17T10:25:41;11.80;;;5.10;;
22794;SDS011;11564;50.920;11.612;2023-08-17T10:28:11;4.50;;;4.20;;
22794;SDS011;11564;50.920;11.612;2023-08-17T10:30:39;4.60;;;4.20;;
22794;SDS011;11564;50.920;11.612;2023-08-17T10:33:05;6.53;;;5.43;;
22794;SDS011;11564;50.920;11.612;2023-08-17T10:35:32;5.53;;;5.17;;
22794;SDS011;11564;50.920;11.612;2023-08-17T10:37:58;6.03;;;5.47;;
22794;SDS011;11564;50.920;11.612;2023-08-17T10:40:27;11.83;;;5.30;;
22794;SDS011;11564;50.920;11.612;2023-08-17T10:42:54;5.37;;;5.03;;
22794;SDS011;11564;50.920;11.612;2023-08-17T10:45:25;5.10;;;4.73;;
22794;SDS011;11564;50.920;11.612;2023-08-17T10:50:33;6.00;;;5.50;;
22794;SDS011;11564;50.920;11.612;2023-08-17T10:53:04;5.80;;;5.30;;
22794;SDS011;11564;50.920;11.612;2023-08-17T10:55:41;5.60;;;5.17;;
22794;SDS011;11564;50.920;11.612;2023-08-17T10:58:09;5.93;;;5.40;;
22794;SDS011;11564;50.920;11.612;2023-08-17T11:00:36;5.83;;;4.73;;
22794;SDS011;11564;50.920;11.612;2023-08-17T11:03:05;4.80;;;4.50;;
22794;SDS011;11564;50.920;11.612;2023-08-17T11:05:54;6.20;;;5.60;;
22794;SDS011;11564;50.920;11.612;2023-08-17T11:11:10;6.50;;;5.90;;
22794;SDS011;11564;50.920;11.612;2023-08-17T11:13:37;6.80;;;6.20;;
22794;SDS011;11564;50.920;11.612;2023-08-17T11:16:07;6.40;;;5.80;;
22794;SDS011;11564;50.920;11.612;2023-08-17T11:18:35;6.90;;;6.30;;
22794;SDS011;11564;50.920;11.612;2023-08-17T11:21:07;6.00;;;5.60;;
22794;SDS011;11564;50.920;11.612;2023-08-17T11:23:34;5.37;;;4.97;;
22794;SDS011;11564;50.920;11.612;2023-08-17T11:26:01;6.30;;;5.70;;
22794;SDS011;11564;50.920;11.612;2023-08-17T11:28:29;7.60;;;5.73;;
22794;SDS011;11564;50.920;11.612;2023-08-17T11:31:04;6.43;;;5.83;;
22794;SDS011;11564;50.920;11.612;2023-08-17T11:33:32;5.50;;;5.10;;
22794;SDS011;11564;50.920;11.612;2023-08-17T11:35:59;5.90;;;5.40;;
22794;SDS011;11564;50.920;11.612;2023-08-17T11:38:29;5.63;;;5.13;;
22794;SDS011;11564;50.920;11.612;2023-08-17T11:40:57;5.80;;;5.30;;
22794;SDS011;11564;50.920;11.612;2023-08-17T11:43:23;6.83;;;6.23;;
22794;SDS011;11564;50.920;11.612;2023-08-17T11:45:49;7.73;;;6.30;;
22794;SDS011;11564;50.920;11.612;2023-08-17T11:48:17;7.00;;;5.37;;
22794;SDS011;11564;50.920;11.612;2023-08-17T11:50:44;6.40;;;5.80;;
22794;SDS011;11564;50.920;11.612;2023-08-17T11:53:10;7.00;;;5.83;;
22794;SDS011;11564;50.920;11.612;2023-08-17T11:55:36;7.60;;;6.23;;
22794;SDS011;11564;50.920;11.612;2023-08-17T11:58:02;8.47;;;6.10;;
22794;SDS011;11564;50.920;11.612;2023-08-17T12:00:34;6.40;;;5.90;;
22794;SDS011;11564;50.920;11.612;2023-08-17T12:03:02;6.40;;;5.70;;
22794;SDS011;11564;50.920;11.612;2023-08-17T12:05:30;10.40;;;6.10;;
22794;SDS011;11564;50.920;11.612;2023-08-17T12:07:57;10.13;;;5.57;;
22794;SDS011;11564;50.920;11.612;2023-08-17T12:10:27;5.73;;;5.33;;
22794;SDS011;11564;50.920;11.612;2023-08-17T12:12:57;6.93;;;6.20;;
22794;SDS011;11564;50.920;11.612;2023-08-17T12:15:29;9.50;;;5.90;;
22794;SDS011;11564;50.920;11.612;2023-08-17T12:17:58;7.53;;;6.03;;
22794;SDS011;11564;50.920;11.612;2023-08-17T12:20:24;6.40;;;5.93;;
22794;SDS011;11564;50.920;11.612;2023-08-17T12:22:50;6.67;;;4.80;;
22794;SDS011;11564;50.920;11.612;2023-08-17T12:25:15;6.30;;;5.50;;
22794;SDS011;11564;50.920;11.612;2023-08-17T12:27:46;7.70;;;5.50;;
22794;SDS011;11564;50.920;11.612;2023-08-17T12:30:25;4.90;;;4.60;;
22794;SDS011;11564;50.920;11.612;2023-08-17T12:32:57;9.60;;;4.57;;
22794;SDS011;11564;50.920;11.612;2023-08-17T12:35:23;5.47;;;4.97;;
22794;SDS011;11564;50.920;11.612;2023-08-17T12:37:50;5.27;;;4.90;;
22794;SDS011;11564;50.920;11.612;2023-08-17T12:40:16;5.60;;;5.10;;
22794;SDS011;11564;50.920;11.612;2023-08-17T12:42:42;6.00;;;5.17;;
22794;SDS011;11564;50.920;11.612;2023-08-17T12:45:07;5.50;;;5.00;;
22794;SDS011;11564;50.920;11.612;2023-08-17T12:47:33;6.77;;;4.97;;
22794;SDS011;11564;50.920;11.612;2023-08-17T12:49:59;6.13;;;4.50;;
22794;SDS011;11564;50.920;11.612;2023-08-17T12:52:25;9.60;;;4.90;;
22794;SDS011;11564;50.920;11.612;2023-08-17T12:54:52;4.47;;;4.07;;
22794;SDS011;11564;50.920;11.612;2023-08-17T12:57:18;6.47;;;4.03;;
22794;SDS011;11564;50.920;11.612;2023-08-17T12:59:43;4.60;;;4.20;;
22794;SDS011;11564;50.920;11.612;2023-08-17T13:02:09;8.10;;;4.33;;
22794;SDS011;11564;50.920;11.612;2023-08-17T13:04:35;4.60;;;3.53;;
22794;SDS011;11564;50.920;11.612;2023-08-17T13:07:01;4.27;;;3.87;;
22794;SDS011;11564;50.920;11.612;2023-08-17T13:09:27;4.50;;;3.90;;
22794;SDS011;11564;50.920;11.612;2023-08-17T13:11:52;5.53;;;2.83;;
22794;SDS011;11564;50.920;11.612;2023-08-17T13:14:18;4.83;;;3.70;;
22794;SDS011;11564;50.920;11.612;2023-08-17T13:16:44;3.40;;;3.20;;
22794;SDS011;11564;50.920;11.612;2023-08-17T13:19:09;3.80;;;3.50;;
22794;SDS011;11564;50.920;11.612;2023-08-17T13:21:35;3.60;;;3.30;;
22794;SDS011;11564;50.920;11.612;2023-08-17T13:24:00;5.60;;;3.57;;
22794;SDS011;11564;50.920;11.612;2023-08-17T13:26:28;6.20;;;4.97;;
22794;SDS011;11564;50.920;11.612;2023-08-17T13:28:54;4.73;;;4.43;;
22794;SDS011;11564;50.920;11.612;2023-08-17T13:31:19;4.40;;;4.10;;
22794;SDS011;11564;50.920;11.612;2023-08-17T13:33:45;4.90;;;4.60;;
22794;SDS011;11564;50.920;11.612;2023-08-17T13:36:11;8.70;;;4.40;;
22794;SDS011;11564;50.920;11.612;2023-08-17T13:38:36;3.87;;;3.67;;
22794;SDS011;11564;50.920;11.612;2023-08-17T13:41:03;3.47;;;3.17;;
22794;SDS011;11564;50.920;11.612;2023-08-17T13:43:29;8.13;;;3.03;;
22794;SDS011;11564;50.920;11.612;2023-08-17T13:45:55;3.30;;;3.10;;
22794;SDS011;11564;50.920;11.612;2023-08-17T13:48:20;5.83;;;3.10;;
22794;SDS011;11564;50.920;11.612;2023-08-17T13:50:46;4.13;;;2.73;;
22794;SDS011;11564;50.920;11.612;2023-08-17T13:53:12;3.13;;;2.83;;
22794;SDS011;11564;50.920;11.612;2023-08-17T13:55:37;4.07;;;2.73;;
22794;SDS011;11564;50.920;11.612;2023-08-17T13:58:03;3.43;;;2.93;;
22794;SDS011;11564;50.920;11.612;2023-08-17T14:00:29;4.47;;;3.53;;
22794;SDS011;11564;50.920;11.612;2023-08-17T14:02:55;3.10;;;3.00;;
22794;SDS011;11564;50.920;11.612;2023-08-17T14:05:20;3.63;;;3.33;;
22794;SDS011;11564;50.920;11.612;2023-08-17T14:07:46;4.00;;;3.70;;
22794;SDS011;11564;50.920;11.612;2023-08-17T14:10:12;5.10;;;3.60;;
22794;SDS011;11564;50.920;11.612;2023-08-17T14:12:38;4.60;;;4.20;;
22794;SDS011;11564;50.920;11.612;2023-08-17T14:15:04;4.77;;;4.20;;
22794;SDS011;11564;50.920;11.612;2023-08-17T14:17:30;4.70;;;4.40;;
22794;SDS011;11564;50.920;11.612;2023-08-17T14:19:56;8.43;;;4.93;;
22794;SDS011;11564;50.920;11.612;2023-08-17T14:22:21;5.00;;;4.60;;
22794;SDS011;11564;50.920;11.612;2023-08-17T14:24:47;9.07;;;4.87;;
22794;SDS011;11564;50.920;11.612;2023-08-17T14:27:12;4.83;;;4.53;;
22794;SDS011;11564;50.920;11.612;2023-08-17T14:29:38;5.77;;;5.17;;
22794;SDS011;11564;50.920;11.612;2023-08-17T14:32:04;6.53;;;4.90;;
22794;SDS011;11564;50.920;11.612;2023-08-17T14:34:29;5.43;;;4.93;;
22794;SDS011;11564;50.920;11.612;2023-08-17T14:36:55;5.90;;;5.33;;
22794;SDS011;11564;50.920;11.612;2023-08-17T14:39:21;6.23;;;5.67;;